sensor_id;sensor_type;location;lat;lon;timestamp;P1;durP1;ratioP1;P2;durP2;ratioP2
61471;SDS011;47337;54.068;12.114;2023-07-20T00:01:36;6.50;;;4.80;;
61471;SDS011;47337;54.068;12.114;2023-07-20T00:04:03;6.45;;;4.20;;
61471;SDS011;47337;54.068;12.114;2023-07-20T00:06:30;5.90;;;4.57;;
61471;SDS011;47337;54.068;12.114;2023-07-20T00:08:56;6.55;;;5.25;;
61471;SDS011;47337;54.068;12.114;2023-07-20T00:11:24;5.55;;;4.43;;
61471;SDS011;47337;54.068;12.114;2023-07-20T00:13:51;5.53;;;4.28;;
61471;SDS011;47337;54.068;12.114;2023-07-20T00:16:17;5.18;;;4.40;;
61471;SDS011;47337;54.068;12.114;2023-07-20T00:18:42;7.65;;;4.43;;
61471;SDS011;47337;54.068;12.114;2023-07-20T00:21:08;5.45;;;4.30;;
61471;SDS011;47337;54.068;12.114;2023-07-20T00:23:33;7.47;;;3.95;;
61471;SDS011;47337;54.068;12.114;2023-07-20T00:25:59;5.10;;;4.50;;
61471;SDS011;47337;54.068;12.114;2023-07-20T00:28:27;6.85;;;4.10;;
61471;SDS011;47337;54.068;12.114;2023-07-20T00:30:55;5.63;;;4.38;;
61471;SDS011;47337;54.068;12.114;2023-07-20T00:33:20;5.70;;;3.78;;
61471;SDS011;47337;54.068;12.114;2023-07-20T00:35:46;5.18;;;4.15;;
61471;SDS011;47337;54.068;12.114;2023-07-20T00:38:11;7.90;;;4.82;;
61471;SDS011;47337;54.068;12.114;2023-07-20T00:40:40;6.25;;;4.70;;
61471;SDS011;47337;54.068;12.114;2023-07-20T00:43:08;6.43;;;5.18;;
61471;SDS011;47337;54.068;12.114;2023-07-20T00:45:34;8.18;;;5.00;;
61471;SDS011;47337;54.068;12.114;2023-07-20T00:48:02;8.00;;;4.72;;
61471;SDS011;47337;54.068;12.114;2023-07-20T00:50:29;6.43;;;4.47;;
61471;SDS011;47337;54.068;12.114;2023-07-20T00:52:56;5.80;;;5.25;;
61471;SDS011;47337;54.068;12.114;2023-07-20T00:55:23;7.32;;;5.18;;
61471;SDS011;47337;54.068;12.114;2023-07-20T00:57:50;6.55;;;4.90;;
61471;SDS011;47337;54.068;12.114;2023-07-20T01:00:16;5.47;;;4.88;;
61471;SDS011;47337;54.068;12.114;2023-07-20T01:02:44;6.03;;;4.60;;
61471;SDS011;47337;54.068;12.114;2023-07-20T01:05:12;7.78;;;5.40;;
61471;SDS011;47337;54.068;12.114;2023-07-20T01:07:51;6.38;;;4.93;;
61471;SDS011;47337;54.068;12.114;2023-07-20T01:12:51;5.40;;;4.50;;
61471;SDS011;47337;54.068;12.114;2023-07-20T01:15:20;5.45;;;4.63;;
61471;SDS011;47337;54.068;12.114;2023-07-20T01:17:47;6.40;;;5.20;;
61471;SDS011;47337;54.068;12.114;2023-07-20T01:20:13;6.55;;;4.70;;
61471;SDS011;47337;54.068;12.114;2023-07-20T01:33:41;6.07;;;4.15;;
61471;SDS011;47337;54.068;12.114;2023-07-20T01:36:11;7.72;;;4.32;;
61471;SDS011;47337;54.068;12.114;2023-07-20T01:38:37;6.13;;;4.47;;
61471;SDS011;47337;54.068;12.114;2023-07-20T01:41:03;8.48;;;4.70;;
61471;SDS011;47337;54.068;12.114;2023-07-20T01:43:30;5.20;;;4.47;;
61471;SDS011;47337;54.068;12.114;2023-07-20T01:45:57;5.97;;;4.00;;
61471;SDS011;47337;54.068;12.114;2023-07-20T01:48:23;7.50;;;4.38;;
61471;SDS011;47337;54.068;12.114;2023-07-20T01:50:48;5.63;;;3.38;;
61471;SDS011;47337;54.068;12.114;2023-07-20T01:53:16;7.28;;;3.95;;
61471;SDS011;47337;54.068;12.114;2023-07-20T01:55:45;6.45;;;3.70;;
61471;SDS011;47337;54.068;12.114;2023-07-20T01:58:11;5.22;;;3.13;;
61471;SDS011;47337;54.068;12.114;2023-07-20T02:00:37;6.03;;;3.72;;
61471;SDS011;47337;54.068;12.114;2023-07-20T02:03:02;5.43;;;3.13;;
61471;SDS011;47337;54.068;12.114;2023-07-20T02:05:28;4.72;;;3.67;;
61471;SDS011;47337;54.068;12.114;2023-07-20T02:07:56;5.10;;;3.80;;
61471;SDS011;47337;54.068;12.114;2023-07-20T02:10:21;6.20;;;3.90;;
61471;SDS011;47337;54.068;12.114;2023-07-20T02:12:46;5.47;;;3.72;;
61471;SDS011;47337;54.068;12.114;2023-07-20T02:15:13;6.13;;;4.07;;
61471;SDS011;47337;54.068;12.114;2023-07-20T02:17:42;4.95;;;4.13;;
61471;SDS011;47337;54.068;12.114;2023-07-20T02:20:08;4.10;;;3.70;;
61471;SDS011;47337;54.068;12.114;2023-07-20T02:22:35;4.35;;;3.53;;
61471;SDS011;47337;54.068;12.114;2023-07-20T02:25:04;5.07;;;4.18;;
61471;SDS011;47337;54.068;12.114;2023-07-20T02:27:30;6.68;;;4.20;;
61471;SDS011;47337;54.068;12.114;2023-07-20T02:29:56;5.40;;;3.97;;
61471;SDS011;47337;54.068;12.114;2023-07-20T02:32:24;4.78;;;3.65;;
61471;SDS011;47337;54.068;12.114;2023-07-20T02:34:50;5.38;;;3.83;;
61471;SDS011;47337;54.068;12.114;2023-07-20T02:37:16;6.20;;;4.30;;
61471;SDS011;47337;54.068;12.114;2023-07-20T02:39:43;6.57;;;3.90;;
61471;SDS011;47337;54.068;12.114;2023-07-20T02:42:09;5.90;;;3.83;;
61471;SDS011;47337;54.068;12.114;2023-07-20T02:44:34;6.55;;;4.03;;
61471;SDS011;47337;54.068;12.114;2023-07-20T02:47:00;5.72;;;3.70;;
61471;SDS011;47337;54.068;12.114;2023-07-20T02:49:26;5.10;;;4.03;;
61471;SDS011;47337;54.068;12.114;2023-07-20T02:51:53;5.05;;;4.00;;
61471;SDS011;47337;54.068;12.114;2023-07-20T02:54:19;4.55;;;3.78;;
61471;SDS011;47337;54.068;12.114;2023-07-20T02:56:44;7.15;;;4.10;;
61471;SDS011;47337;54.068;12.114;2023-07-20T02:59:10;4.75;;;3.65;;
61471;SDS011;47337;54.068;12.114;2023-07-20T03:01:35;5.30;;;4.07;;
61471;SDS011;47337;54.068;12.114;2023-07-20T03:04:01;4.53;;;3.70;;
61471;SDS011;47337;54.068;12.114;2023-07-20T03:06:29;5.32;;;4.30;;
61471;SDS011;47337;54.068;12.114;2023-07-20T03:08:57;6.22;;;3.70;;
61471;SDS011;47337;54.068;12.114;2023-07-20T03:11:25;4.53;;;3.97;;
61471;SDS011;47337;54.068;12.114;2023-07-20T03:13:50;7.65;;;5.05;;
61471;SDS011;47337;54.068;12.114;2023-07-20T03:16:18;5.15;;;3.70;;
61471;SDS011;47337;54.068;12.114;2023-07-20T03:18:44;5.93;;;4.10;;
61471;SDS011;47337;54.068;12.114;2023-07-20T03:21:12;4.50;;;3.92;;
61471;SDS011;47337;54.068;12.114;2023-07-20T03:23:42;5.03;;;4.10;;
61471;SDS011;47337;54.068;12.114;2023-07-20T03:26:07;4.07;;;3.60;;
61471;SDS011;47337;54.068;12.114;2023-07-20T03:28:36;5.65;;;3.70;;
61471;SDS011;47337;54.068;12.114;2023-07-20T03:31:03;5.90;;;3.53;;
61471;SDS011;47337;54.068;12.114;2023-07-20T03:33:34;4.05;;;3.25;;
61471;SDS011;47337;54.068;12.114;2023-07-20T03:36:00;7.72;;;4.22;;
61471;SDS011;47337;54.068;12.114;2023-07-20T03:38:26;3.10;;;2.80;;
61471;SDS011;47337;54.068;12.114;2023-07-20T03:40:55;4.93;;;2.70;;
61471;SDS011;47337;54.068;12.114;2023-07-20T03:43:26;5.85;;;2.72;;
61471;SDS011;47337;54.068;12.114;2023-07-20T03:45:55;4.70;;;2.90;;
61471;SDS011;47337;54.068;12.114;2023-07-20T03:48:22;4.70;;;2.90;;
61471;SDS011;47337;54.068;12.114;2023-07-20T03:50:49;3.33;;;2.45;;
61471;SDS011;47337;54.068;12.114;2023-07-20T03:53:17;7.25;;;2.97;;
61471;SDS011;47337;54.068;12.114;2023-07-20T03:55:49;4.28;;;2.85;;
61471;SDS011;47337;54.068;12.114;2023-07-20T03:58:16;4.00;;;2.35;;
61471;SDS011;47337;54.068;12.114;2023-07-20T04:00:44;5.50;;;2.65;;
61471;SDS011;47337;54.068;12.114;2023-07-20T04:03:11;3.53;;;2.45;;
61471;SDS011;47337;54.068;12.114;2023-07-20T04:05:36;4.07;;;2.63;;
61471;SDS011;47337;54.068;12.114;2023-07-20T04:08:01;3.15;;;2.60;;
61471;SDS011;47337;54.068;12.114;2023-07-20T04:10:29;3.15;;;2.38;;
61471;SDS011;47337;54.068;12.114;2023-07-20T04:12:55;2.63;;;2.30;;
61471;SDS011;47337;54.068;12.114;2023-07-20T04:15:22;3.50;;;2.55;;
61471;SDS011;47337;54.068;12.114;2023-07-20T04:17:48;2.38;;;2.03;;
61471;SDS011;47337;54.068;12.114;2023-07-20T04:20:14;5.85;;;2.55;;
61471;SDS011;47337;54.068;12.114;2023-07-20T04:22:39;4.13;;;2.65;;
61471;SDS011;47337;54.068;12.114;2023-07-20T04:25:05;3.35;;;1.80;;
61471;SDS011;47337;54.068;12.114;2023-07-20T04:27:33;2.47;;;2.28;;
61471;SDS011;47337;54.068;12.114;2023-07-20T04:29:58;3.63;;;1.85;;
61471;SDS011;47337;54.068;12.114;2023-07-20T04:32:25;4.85;;;1.83;;
61471;SDS011;47337;54.068;12.114;2023-07-20T04:34:51;3.78;;;1.90;;
61471;SDS011;47337;54.068;12.114;2023-07-20T04:37:16;5.00;;;1.90;;
61471;SDS011;47337;54.068;12.114;2023-07-20T04:39:42;3.20;;;1.67;;
61471;SDS011;47337;54.068;12.114;2023-07-20T04:42:10;3.85;;;1.73;;
61471;SDS011;47337;54.068;12.114;2023-07-20T04:44:37;2.90;;;1.70;;
61471;SDS011;47337;54.068;12.114;2023-07-20T04:47:02;3.38;;;1.80;;
61471;SDS011;47337;54.068;12.114;2023-07-20T04:49:28;2.60;;;1.58;;
61471;SDS011;47337;54.068;12.114;2023-07-20T04:51:53;5.47;;;1.50;;
61471;SDS011;47337;54.068;12.114;2023-07-20T04:54:19;4.05;;;1.80;;
61471;SDS011;47337;54.068;12.114;2023-07-20T04:56:47;2.50;;;1.70;;
61471;SDS011;47337;54.068;12.114;2023-07-20T04:59:12;4.50;;;2.50;;
61471;SDS011;47337;54.068;12.114;2023-07-20T05:01:40;2.88;;;2.03;;
61471;SDS011;47337;54.068;12.114;2023-07-20T05:04:08;8.65;;;2.33;;
61471;SDS011;47337;54.068;12.114;2023-07-20T05:06:38;2.88;;;2.00;;
61471;SDS011;47337;54.068;12.114;2023-07-20T05:09:04;2.90;;;1.65;;
61471;SDS011;47337;54.068;12.114;2023-07-20T05:11:32;4.53;;;1.73;;
61471;SDS011;47337;54.068;12.114;2023-07-20T05:13:59;3.50;;;1.50;;
61471;SDS011;47337;54.068;12.114;2023-07-20T05:16:26;2.97;;;1.25;;
61471;SDS011;47337;54.068;12.114;2023-07-20T05:18:52;3.33;;;1.17;;
61471;SDS011;47337;54.068;12.114;2023-07-20T05:21:24;3.22;;;1.02;;
61471;SDS011;47337;54.068;12.114;2023-07-20T05:23:50;1.63;;;0.90;;
61471;SDS011;47337;54.068;12.114;2023-07-20T05:26:15;3.55;;;0.95;;
61471;SDS011;47337;54.068;12.114;2023-07-20T05:28:43;1.45;;;0.80;;
61471;SDS011;47337;54.068;12.114;2023-07-20T05:31:11;1.58;;;0.98;;
61471;SDS011;47337;54.068;12.114;2023-07-20T05:33:36;1.17;;;0.73;;
61471;SDS011;47337;54.068;12.114;2023-07-20T05:36:02;1.67;;;0.60;;
61471;SDS011;47337;54.068;12.114;2023-07-20T05:38:27;0.70;;;0.50;;
61471;SDS011;47337;54.068;12.114;2023-07-20T05:40:58;1.73;;;0.47;;
61471;SDS011;47337;54.068;12.114;2023-07-20T05:43:28;2.78;;;0.50;;
61471;SDS011;47337;54.068;12.114;2023-07-20T05:45:56;0.70;;;0.50;;
61471;SDS011;47337;54.068;12.114;2023-07-20T05:48:24;1.20;;;0.50;;
61471;SDS011;47337;54.068;12.114;2023-07-20T05:50:49;0.43;;;0.30;;
61471;SDS011;47337;54.068;12.114;2023-07-20T05:53:15;1.10;;;0.30;;
61471;SDS011;47337;54.068;12.114;2023-07-20T05:55:40;1.73;;;0.43;;
61471;SDS011;47337;54.068;12.114;2023-07-20T05:58:06;2.35;;;0.75;;
61471;SDS011;47337;54.068;12.114;2023-07-20T06:00:33;3.50;;;0.63;;
61471;SDS011;47337;54.068;12.114;2023-07-20T06:03:02;0.50;;;0.50;;
61471;SDS011;47337;54.068;12.114;2023-07-20T06:05:29;1.67;;;0.75;;
61471;SDS011;47337;54.068;12.114;2023-07-20T06:07:54;0.95;;;0.40;;
61471;SDS011;47337;54.068;12.114;2023-07-20T06:10:23;1.85;;;0.45;;
61471;SDS011;47337;54.068;12.114;2023-07-20T06:12:48;1.00;;;0.50;;
61471;SDS011;47337;54.068;12.114;2023-07-20T06:15:27;1.70;;;0.80;;
61471;SDS011;47337;54.068;12.114;2023-07-20T06:18:01;1.98;;;0.40;;
61471;SDS011;47337;54.068;12.114;2023-07-20T06:20:28;1.30;;;0.70;;
61471;SDS011;47337;54.068;12.114;2023-07-20T06:22:54;2.35;;;0.82;;
61471;SDS011;47337;54.068;12.114;2023-07-20T06:25:19;1.00;;;0.35;;
61471;SDS011;47337;54.068;12.114;2023-07-20T06:27:46;1.35;;;0.50;;
61471;SDS011;47337;54.068;12.114;2023-07-20T06:30:11;1.17;;;0.75;;
61471;SDS011;47337;54.068;12.114;2023-07-20T06:32:37;1.38;;;0.50;;
61471;SDS011;47337;54.068;12.114;2023-07-20T06:35:03;0.57;;;0.40;;
61471;SDS011;47337;54.068;12.114;2023-07-20T06:37:29;0.60;;;0.30;;
61471;SDS011;47337;54.068;12.114;2023-07-20T06:40:00;4.38;;;0.65;;
61471;SDS011;47337;54.068;12.114;2023-07-20T06:42:26;0.75;;;0.50;;
61471;SDS011;47337;54.068;12.114;2023-07-20T06:44:52;3.00;;;0.60;;
61471;SDS011;47337;54.068;12.114;2023-07-20T06:47:19;0.88;;;0.43;;
61471;SDS011;47337;54.068;12.114;2023-07-20T06:49:47;3.10;;;0.77;;
61471;SDS011;47337;54.068;12.114;2023-07-20T06:52:13;2.63;;;0.70;;
61471;SDS011;47337;54.068;12.114;2023-07-20T06:54:38;0.82;;;0.50;;
61471;SDS011;47337;54.068;12.114;2023-07-20T06:57:04;1.45;;;0.60;;
61471;SDS011;47337;54.068;12.114;2023-07-20T06:59:30;1.65;;;0.57;;
61471;SDS011;47337;54.068;12.114;2023-07-20T07:02:00;2.85;;;0.50;;
61471;SDS011;47337;54.068;12.114;2023-07-20T07:04:26;1.52;;;0.50;;
61471;SDS011;47337;54.068;12.114;2023-07-20T07:06:52;2.58;;;0.40;;
61471;SDS011;47337;54.068;12.114;2023-07-20T07:09:17;1.08;;;0.47;;
61471;SDS011;47337;54.068;12.114;2023-07-20T07:11:43;1.38;;;0.50;;
61471;SDS011;47337;54.068;12.114;2023-07-20T07:14:12;1.95;;;0.63;;
61471;SDS011;47337;54.068;12.114;2023-07-20T07:16:40;2.60;;;0.90;;
61471;SDS011;47337;54.068;12.114;2023-07-20T07:19:06;1.40;;;0.60;;
61471;SDS011;47337;54.068;12.114;2023-07-20T07:21:32;1.77;;;0.52;;
61471;SDS011;47337;54.068;12.114;2023-07-20T07:23:57;1.85;;;0.68;;
61471;SDS011;47337;54.068;12.114;2023-07-20T07:26:24;2.40;;;0.68;;
61471;SDS011;47337;54.068;12.114;2023-07-20T07:28:50;2.28;;;0.50;;
61471;SDS011;47337;54.068;12.114;2023-07-20T07:31:18;2.13;;;0.70;;
61471;SDS011;47337;54.068;12.114;2023-07-20T07:33:43;2.53;;;0.52;;
61471;SDS011;47337;54.068;12.114;2023-07-20T07:36:09;2.42;;;0.90;;
61471;SDS011;47337;54.068;12.114;2023-07-20T07:38:37;1.45;;;0.50;;
61471;SDS011;47337;54.068;12.114;2023-07-20T07:41:03;1.77;;;0.80;;
61471;SDS011;47337;54.068;12.114;2023-07-20T07:43:28;2.50;;;0.88;;
61471;SDS011;47337;54.068;12.114;2023-07-20T07:45:54;3.78;;;1.02;;
61471;SDS011;47337;54.068;12.114;2023-07-20T07:48:20;5.32;;;0.70;;
61471;SDS011;47337;54.068;12.114;2023-07-20T07:50:47;2.40;;;0.57;;
61471;SDS011;47337;54.068;12.114;2023-07-20T07:53:12;2.72;;;0.65;;
61471;SDS011;47337;54.068;12.114;2023-07-20T07:55:38;1.88;;;0.52;;
61471;SDS011;47337;54.068;12.114;2023-07-20T07:58:03;0.90;;;0.57;;
61471;SDS011;47337;54.068;12.114;2023-07-20T08:00:29;1.98;;;0.85;;
61471;SDS011;47337;54.068;12.114;2023-07-20T08:02:55;3.58;;;0.70;;
61471;SDS011;47337;54.068;12.114;2023-07-20T08:05:22;2.97;;;1.00;;
61471;SDS011;47337;54.068;12.114;2023-07-20T08:07:51;2.53;;;0.80;;
61471;SDS011;47337;54.068;12.114;2023-07-20T08:10:17;1.65;;;0.50;;
61471;SDS011;47337;54.068;12.114;2023-07-20T08:12:44;2.15;;;0.93;;
61471;SDS011;47337;54.068;12.114;2023-07-20T08:15:13;0.82;;;0.38;;
61471;SDS011;47337;54.068;12.114;2023-07-20T08:17:39;4.22;;;0.80;;
61471;SDS011;47337;54.068;12.114;2023-07-20T08:20:06;1.10;;;0.50;;
61471;SDS011;47337;54.068;12.114;2023-07-20T08:22:32;1.20;;;0.60;;
61471;SDS011;47337;54.068;12.114;2023-07-20T08:24:57;1.40;;;0.50;;
61471;SDS011;47337;54.068;12.114;2023-07-20T08:27:23;2.05;;;0.52;;
61471;SDS011;47337;54.068;12.114;2023-07-20T08:29:48;5.00;;;0.65;;
61471;SDS011;47337;54.068;12.114;2023-07-20T08:32:14;1.45;;;0.52;;
61471;SDS011;47337;54.068;12.114;2023-07-20T08:34:41;0.95;;;0.57;;
61471;SDS011;47337;54.068;12.114;2023-07-20T08:37:07;3.13;;;0.80;;
61471;SDS011;47337;54.068;12.114;2023-07-20T08:39:40;2.15;;;0.60;;
61471;SDS011;47337;54.068;12.114;2023-07-20T08:42:05;1.58;;;0.57;;
61471;SDS011;47337;54.068;12.114;2023-07-20T08:44:35;2.47;;;0.70;;
61471;SDS011;47337;54.068;12.114;2023-07-20T08:47:04;1.73;;;0.80;;
61471;SDS011;47337;54.068;12.114;2023-07-20T08:49:32;1.50;;;0.68;;
61471;SDS011;47337;54.068;12.114;2023-07-20T08:51:59;1.95;;;0.90;;
61471;SDS011;47337;54.068;12.114;2023-07-20T08:54:29;2.92;;;0.93;;
61471;SDS011;47337;54.068;12.114;2023-07-20T08:56:57;2.28;;;1.30;;
61471;SDS011;47337;54.068;12.114;2023-07-20T08:59:28;3.60;;;1.02;;
61471;SDS011;47337;54.068;12.114;2023-07-20T09:01:55;3.05;;;1.17;;
61471;SDS011;47337;54.068;12.114;2023-07-20T09:04:22;5.28;;;1.20;;
61471;SDS011;47337;54.068;12.114;2023-07-20T09:06:48;2.33;;;1.13;;
61471;SDS011;47337;54.068;12.114;2023-07-20T09:09:14;2.72;;;1.10;;
61471;SDS011;47337;54.068;12.114;2023-07-20T09:11:40;1.27;;;0.88;;
61471;SDS011;47337;54.068;12.114;2023-07-20T09:14:06;1.85;;;1.00;;
61471;SDS011;47337;54.068;12.114;2023-07-20T09:16:32;3.05;;;0.93;;
61471;SDS011;47337;54.068;12.114;2023-07-20T09:19:11;2.35;;;1.00;;
61471;SDS011;47337;54.068;12.114;2023-07-20T09:21:37;1.38;;;0.85;;
61471;SDS011;47337;54.068;12.114;2023-07-20T09:24:03;3.10;;;1.13;;
61471;SDS011;47337;54.068;12.114;2023-07-20T09:26:31;3.30;;;0.95;;
61471;SDS011;47337;54.068;12.114;2023-07-20T09:29:06;3.28;;;1.10;;
61471;SDS011;47337;54.068;12.114;2023-07-20T09:31:33;5.95;;;1.00;;
61471;SDS011;47337;54.068;12.114;2023-07-20T09:33:58;2.00;;;0.90;;
61471;SDS011;47337;54.068;12.114;2023-07-20T09:36:26;2.65;;;0.90;;
61471;SDS011;47337;54.068;12.114;2023-07-20T09:38:54;1.73;;;1.13;;
61471;SDS011;47337;54.068;12.114;2023-07-20T09:41:21;3.00;;;0.90;;
61471;SDS011;47337;54.068;12.114;2023-07-20T09:43:49;3.67;;;1.20;;
61471;SDS011;47337;54.068;12.114;2023-07-20T09:46:14;2.22;;;0.93;;
61471;SDS011;47337;54.068;12.114;2023-07-20T09:48:51;2.70;;;0.95;;
61471;SDS011;47337;54.068;12.114;2023-07-20T09:51:23;2.35;;;0.88;;
61471;SDS011;47337;54.068;12.114;2023-07-20T09:53:49;2.22;;;1.00;;
61471;SDS011;47337;54.068;12.114;2023-07-20T09:56:21;8.95;;;1.45;;
61471;SDS011;47337;54.068;12.114;2023-07-20T09:58:49;3.03;;;1.30;;
61471;SDS011;47337;54.068;12.114;2023-07-20T10:01:18;2.05;;;1.10;;
61471;SDS011;47337;54.068;12.114;2023-07-20T10:03:48;3.60;;;1.40;;
61471;SDS011;47337;54.068;12.114;2023-07-20T10:06:20;4.15;;;1.73;;
61471;SDS011;47337;54.068;12.114;2023-07-20T10:08:49;3.60;;;1.52;;
61471;SDS011;47337;54.068;12.114;2023-07-20T10:11:21;1.63;;;1.07;;
61471;SDS011;47337;54.068;12.114;2023-07-20T10:13:51;1.90;;;1.10;;
61471;SDS011;47337;54.068;12.114;2023-07-20T10:16:26;2.22;;;1.38;;
61471;SDS011;47337;54.068;12.114;2023-07-20T10:19:11;3.75;;;1.20;;
61471;SDS011;47337;54.068;12.114;2023-07-20T10:21:43;2.20;;;1.17;;
61471;SDS011;47337;54.068;12.114;2023-07-20T10:24:13;2.88;;;1.50;;
61471;SDS011;47337;54.068;12.114;2023-07-20T10:26:40;3.17;;;0.90;;
61471;SDS011;47337;54.068;12.114;2023-07-20T10:29:05;4.53;;;1.33;;
61471;SDS011;47337;54.068;12.114;2023-07-20T10:31:34;4.32;;;1.30;;
61471;SDS011;47337;54.068;12.114;2023-07-20T10:34:01;2.60;;;1.17;;
61471;SDS011;47337;54.068;12.114;2023-07-20T10:36:27;4.68;;;1.25;;
61471;SDS011;47337;54.068;12.114;2023-07-20T10:38:54;2.60;;;1.08;;
61471;SDS011;47337;54.068;12.114;2023-07-20T10:44:06;3.90;;;1.17;;
61471;SDS011;47337;54.068;12.114;2023-07-20T10:46:42;2.85;;;0.77;;
61471;SDS011;47337;54.068;12.114;2023-07-20T10:49:10;3.45;;;1.20;;
61471;SDS011;47337;54.068;12.114;2023-07-20T10:56:47;3.42;;;1.00;;
61471;SDS011;47337;54.068;12.114;2023-07-20T11:01:52;3.03;;;1.10;;
61471;SDS011;47337;54.068;12.114;2023-07-20T11:04:21;2.58;;;0.70;;
61471;SDS011;47337;54.068;12.114;2023-07-20T11:07:02;2.47;;;1.05;;
61471;SDS011;47337;54.068;12.114;2023-07-20T11:09:33;1.55;;;0.60;;
61471;SDS011;47337;54.068;12.114;2023-07-20T11:12:15;3.60;;;1.30;;
61471;SDS011;47337;54.068;12.114;2023-07-20T11:14:43;2.80;;;1.00;;
61471;SDS011;47337;54.068;12.114;2023-07-20T11:17:22;2.58;;;1.00;;
61471;SDS011;47337;54.068;12.114;2023-07-20T11:19:57;1.20;;;0.80;;
61471;SDS011;47337;54.068;12.114;2023-07-20T11:22:25;1.50;;;0.88;;
61471;SDS011;47337;54.068;12.114;2023-07-20T11:24:54;2.10;;;0.70;;
61471;SDS011;47337;54.068;12.114;2023-07-20T11:27:22;6.47;;;1.27;;
61471;SDS011;47337;54.068;12.114;2023-07-20T11:29:50;3.40;;;0.70;;
61471;SDS011;47337;54.068;12.114;2023-07-20T11:32:22;4.13;;;0.70;;
61471;SDS011;47337;54.068;12.114;2023-07-20T11:37:16;2.67;;;0.77;;
61471;SDS011;47337;54.068;12.114;2023-07-20T11:39:43;2.15;;;0.60;;
61471;SDS011;47337;54.068;12.114;2023-07-20T11:42:08;3.22;;;0.73;;
61471;SDS011;47337;54.068;12.114;2023-07-20T11:44:34;0.75;;;0.38;;
61471;SDS011;47337;54.068;12.114;2023-07-20T11:47:17;1.75;;;0.40;;
61471;SDS011;47337;54.068;12.114;2023-07-20T11:49:43;1.67;;;0.52;;
61471;SDS011;47337;54.068;12.114;2023-07-20T11:52:11;1.52;;;0.40;;
61471;SDS011;47337;54.068;12.114;2023-07-20T11:54:39;0.82;;;0.40;;
61471;SDS011;47337;54.068;12.114;2023-07-20T11:57:05;3.72;;;0.60;;
61471;SDS011;47337;54.068;12.114;2023-07-20T11:59:31;1.60;;;0.50;;
61471;SDS011;47337;54.068;12.114;2023-07-20T12:02:02;0.75;;;0.45;;
61471;SDS011;47337;54.068;12.114;2023-07-20T12:04:28;1.35;;;0.50;;
61471;SDS011;47337;54.068;12.114;2023-07-20T12:06:56;2.38;;;0.43;;
61471;SDS011;47337;54.068;12.114;2023-07-20T12:09:21;1.83;;;0.50;;
61471;SDS011;47337;54.068;12.114;2023-07-20T12:11:49;1.70;;;0.60;;
61471;SDS011;47337;54.068;12.114;2023-07-20T12:14:15;1.80;;;0.50;;
61471;SDS011;47337;54.068;12.114;2023-07-20T12:16:41;2.72;;;0.70;;
61471;SDS011;47337;54.068;12.114;2023-07-20T12:19:07;1.23;;;0.52;;
61471;SDS011;47337;54.068;12.114;2023-07-20T12:21:37;1.38;;;0.60;;
61471;SDS011;47337;54.068;12.114;2023-07-20T12:24:05;2.25;;;0.85;;
61471;SDS011;47337;54.068;12.114;2023-07-20T12:26:32;2.45;;;0.60;;
61471;SDS011;47337;54.068;12.114;2023-07-20T12:28:59;3.05;;;0.52;;
61471;SDS011;47337;54.068;12.114;2023-07-20T12:31:28;2.65;;;0.50;;
61471;SDS011;47337;54.068;12.114;2023-07-20T12:33:54;3.75;;;0.60;;
61471;SDS011;47337;54.068;12.114;2023-07-20T12:36:23;2.05;;;0.80;;
61471;SDS011;47337;54.068;12.114;2023-07-20T12:38:51;1.33;;;0.52;;
61471;SDS011;47337;54.068;12.114;2023-07-20T12:41:17;2.50;;;0.60;;
61471;SDS011;47337;54.068;12.114;2023-07-20T12:43:46;2.15;;;0.70;;
61471;SDS011;47337;54.068;12.114;2023-07-20T12:46:14;2.85;;;0.70;;
61471;SDS011;47337;54.068;12.114;2023-07-20T12:48:40;1.70;;;0.77;;
61471;SDS011;47337;54.068;12.114;2023-07-20T12:51:08;2.90;;;0.60;;
61471;SDS011;47337;54.068;12.114;2023-07-20T12:53:35;2.80;;;0.90;;
61471;SDS011;47337;54.068;12.114;2023-07-20T12:56:00;3.60;;;0.80;;
61471;SDS011;47337;54.068;12.114;2023-07-20T12:58:31;1.20;;;0.88;;
61471;SDS011;47337;54.068;12.114;2023-07-20T13:00:59;1.60;;;0.60;;
61471;SDS011;47337;54.068;12.114;2023-07-20T13:03:24;1.67;;;0.80;;
61471;SDS011;47337;54.068;12.114;2023-07-20T13:05:50;2.30;;;0.70;;
61471;SDS011;47337;54.068;12.114;2023-07-20T13:08:16;1.45;;;0.70;;
61471;SDS011;47337;54.068;12.114;2023-07-20T13:10:43;2.00;;;0.60;;
61471;SDS011;47337;54.068;12.114;2023-07-20T13:13:08;0.90;;;0.38;;
61471;SDS011;47337;54.068;12.114;2023-07-20T13:15:40;1.10;;;0.38;;
61471;SDS011;47337;54.068;12.114;2023-07-20T13:18:07;1.45;;;0.60;;
61471;SDS011;47337;54.068;12.114;2023-07-20T13:20:32;2.05;;;0.77;;
61471;SDS011;47337;54.068;12.114;2023-07-20T13:23:01;1.45;;;0.77;;
61471;SDS011;47337;54.068;12.114;2023-07-20T13:25:26;1.55;;;0.35;;
61471;SDS011;47337;54.068;12.114;2023-07-20T13:27:52;2.63;;;0.63;;
61471;SDS011;47337;54.068;12.114;2023-07-20T13:30:20;0.35;;;0.30;;
61471;SDS011;47337;54.068;12.114;2023-07-20T13:32:46;0.77;;;0.20;;
61471;SDS011;47337;54.068;12.114;2023-07-20T13:35:12;0.47;;;0.30;;
61471;SDS011;47337;54.068;12.114;2023-07-20T13:37:37;1.58;;;0.30;;
61471;SDS011;47337;54.068;12.114;2023-07-20T13:40:03;3.42;;;0.65;;
61471;SDS011;47337;54.068;12.114;2023-07-20T13:42:32;1.48;;;0.50;;
61471;SDS011;47337;54.068;12.114;2023-07-20T13:44:57;1.00;;;0.40;;
61471;SDS011;47337;54.068;12.114;2023-07-20T13:47:23;1.75;;;0.30;;
61471;SDS011;47337;54.068;12.114;2023-07-20T13:49:49;4.88;;;0.47;;
61471;SDS011;47337;54.068;12.114;2023-07-20T13:52:16;2.08;;;0.40;;
61471;SDS011;47337;54.068;12.114;2023-07-20T13:54:42;0.95;;;0.45;;
61471;SDS011;47337;54.068;12.114;2023-07-20T13:57:07;0.68;;;0.30;;
61471;SDS011;47337;54.068;12.114;2023-07-20T13:59:32;1.40;;;0.25;;
61471;SDS011;47337;54.068;12.114;2023-07-20T14:01:58;0.20;;;0.10;;
61471;SDS011;47337;54.068;12.114;2023-07-20T14:04:23;1.75;;;0.40;;
61471;SDS011;47337;54.068;12.114;2023-07-20T14:06:49;1.52;;;0.43;;
61471;SDS011;47337;54.068;12.114;2023-07-20T14:09:15;2.60;;;0.70;;
61471;SDS011;47337;54.068;12.114;2023-07-20T14:11:40;2.45;;;0.60;;
61471;SDS011;47337;54.068;12.114;2023-07-20T14:14:06;4.13;;;0.45;;
61471;SDS011;47337;54.068;12.114;2023-07-20T14:16:34;1.77;;;0.68;;
61471;SDS011;47337;54.068;12.114;2023-07-20T14:19:02;3.67;;;0.80;;
61471;SDS011;47337;54.068;12.114;2023-07-20T14:21:29;3.10;;;0.60;;
61471;SDS011;47337;54.068;12.114;2023-07-20T14:23:56;3.50;;;0.65;;
61471;SDS011;47337;54.068;12.114;2023-07-20T14:26:25;1.25;;;1.00;;
61471;SDS011;47337;54.068;12.114;2023-07-20T14:28:53;4.25;;;0.90;;
61471;SDS011;47337;54.068;12.114;2023-07-20T14:31:18;1.33;;;0.65;;
61471;SDS011;47337;54.068;12.114;2023-07-20T14:33:46;3.85;;;0.63;;
61471;SDS011;47337;54.068;12.114;2023-07-20T14:36:11;2.42;;;0.93;;
61471;SDS011;47337;54.068;12.114;2023-07-20T14:38:37;4.47;;;0.88;;
61471;SDS011;47337;54.068;12.114;2023-07-20T14:41:03;2.85;;;0.70;;
61471;SDS011;47337;54.068;12.114;2023-07-20T14:43:30;2.17;;;0.63;;
61471;SDS011;47337;54.068;12.114;2023-07-20T14:45:56;1.77;;;0.65;;
61471;SDS011;47337;54.068;12.114;2023-07-20T14:48:21;2.95;;;0.73;;
61471;SDS011;47337;54.068;12.114;2023-07-20T14:50:47;2.08;;;0.63;;
61471;SDS011;47337;54.068;12.114;2023-07-20T14:53:13;4.05;;;1.02;;
61471;SDS011;47337;54.068;12.114;2023-07-20T14:55:38;1.23;;;0.50;;
61471;SDS011;47337;54.068;12.114;2023-07-20T14:58:06;2.42;;;0.90;;
61471;SDS011;47337;54.068;12.114;2023-07-20T15:00:32;4.22;;;0.70;;